Time;durP1;ratioP1;P1;durP2;ratioP2;P2;SDS_P1;SDS_P2;PMS_P1;PMS_P2;Temp;Humidity;BMP_temperature;BMP_pressure;BME280_temperature;BME280_humidity;BME280_pressure;Samples;Min_cycle;Max_cycle;Signal;HPM_P1;HPM_P2
2024/04/17 00:01:55;;;;;;;5.75;1.20;;;;;;;5.33;100.00;101332.84;5530996;25;20008;-80
2024/04/17 00:04:20;;;;;;;4.80;1.15;;;;;;;5.37;100.00;101343.13;5564319;25;20008;-79
2024/04/17 00:06:46;;;;;;;6.88;1.52;;;;;;;5.37;100.00;101340.50;5530382;25;20056;-79
2024/04/17 00:09:11;;;;;;;2.75;0.80;;;;;;;5.38;100.00;101336.09;5530681;25;19988;-80
2024/04/17 00:11:37;;;;;;;3.50;1.20;;;;;;;5.42;100.00;101345.50;5563716;25;19993;-79
2024/04/17 00:14:02;;;;;;;4.80;1.20;;;;;;;5.41;100.00;101344.66;5563788;25;20003;-79
2024/04/17 00:16:27;;;;;;;5.70;1.10;;;;;;;5.32;100.00;101347.03;5563290;25;20042;-79
2024/04/17 00:18:53;;;;;;;4.03;1.30;;;;;;;5.16;100.00;101337.38;5564426;25;20044;-78
2024/04/17 00:21:18;;;;;;;6.38;1.27;;;;;;;5.01;100.00;101338.28;5564065;25;20374;-78
2024/04/17 00:23:43;;;;;;;7.60;1.27;;;;;;;4.88;100.00;101332.88;5563740;25;20004;-79
2024/04/17 00:26:08;;;;;;;3.72;1.17;;;;;;;4.77;100.00;101331.72;5563693;25;19997;-78
2024/04/17 00:28:34;;;;;;;3.97;0.98;;;;;;;4.70;100.00;101325.13;5563076;25;19993;-79
2024/04/17 00:30:59;;;;;;;7.47;1.35;;;;;;;4.62;100.00;101329.97;5563363;25;20003;-78
2024/04/17 00:33:25;;;;;;;3.15;1.00;;;;;;;4.54;100.00;101325.16;5563401;25;20004;-78
2024/04/17 00:35:51;;;;;;;4.95;1.05;;;;;;;4.48;100.00;101320.25;5563543;25;20000;-78
2024/04/17 00:38:16;;;;;;;3.63;1.33;;;;;;;4.41;100.00;101321.53;5563315;25;20001;-80
2024/04/17 00:40:41;;;;;;;3.78;1.25;;;;;;;4.39;100.00;101324.25;5530490;25;20068;-78
2024/04/17 00:43:07;;;;;;;5.35;1.40;;;;;;;4.40;100.00;101315.41;5530465;25;20008;-78
2024/04/17 00:45:44;;;;;;;2.13;0.90;;;;;;;4.41;100.00;101319.72;5563166;25;19997;-78
2024/04/17 00:48:12;;;;;;;4.03;1.40;;;;;;;4.42;100.00;101320.59;5563564;25;20085;-78
2024/04/17 00:50:39;;;;;;;4.45;1.17;;;;;;;4.43;100.00;101309.09;5562940;25;19993;-78
2024/04/17 00:53:05;;;;;;;3.58;1.08;;;;;;;4.43;100.00;101317.00;5563360;25;19993;-78
2024/04/17 00:55:32;;;;;;;3.53;0.90;;;;;;;4.39;100.00;101316.34;5563349;25;20138;-79
2024/04/17 00:57:59;;;;;;;2.90;0.90;;;;;;;4.36;100.00;101319.16;5530709;25;19997;-79
2024/04/17 01:00:24;;;;;;;3.50;0.93;;;;;;;4.32;100.00;101320.25;5530426;25;20315;-79
2024/04/17 01:02:49;;;;;;;3.78;0.98;;;;;;;4.27;100.00;101306.50;5562879;25;20008;-78
2024/04/17 01:05:16;;;;;;;6.97;1.27;;;;;;;4.24;100.00;101317.22;5563713;25;20025;-78
2024/04/17 01:07:42;;;;;;;4.25;1.10;;;;;;;4.22;100.00;101316.44;5530173;25;20116;-79
2024/04/17 01:10:07;;;;;;;4.32;1.10;;;;;;;4.21;100.00;101314.72;5529899;25;20003;-79
2024/04/17 01:12:35;;;;;;;6.07;1.10;;;;;;;4.17;100.00;101307.94;5563051;25;19997;-78
2024/04/17 01:15:00;;;;;;;2.00;1.00;;;;;;;4.18;100.00;101314.91;5563551;25;19993;-78
2024/04/17 01:17:26;;;;;;;2.95;0.90;;;;;;;4.21;100.00;101317.34;5530960;25;20011;-79
2024/04/17 01:19:51;;;;;;;2.67;1.15;;;;;;;4.26;100.00;101306.59;5567441;25;20003;-78
2024/04/17 01:22:16;;;;;;;6.00;1.10;;;;;;;4.30;100.00;101311.59;5566671;25;20397;-78
2024/04/17 01:24:42;;;;;;;8.05;1.70;;;;;;;4.33;100.00;101303.50;5566220;25;20424;-78
2024/04/17 01:27:07;;;;;;;7.53;1.70;;;;;;;4.37;100.00;101310.31;5566611;25;20405;-78
2024/04/17 01:29:33;;;;;;;7.47;2.10;;;;;;;4.38;100.00;101304.09;5565810;25;19993;-80
2024/04/17 01:31:58;;;;;;;6.57;1.20;;;;;;;4.40;100.00;101302.25;5566427;25;19997;-79
2024/04/17 01:34:25;;;;;;;8.07;1.63;;;;;;;4.39;100.00;101311.06;5533155;25;20441;-79
2024/04/17 01:36:51;;;;;;;8.63;1.63;;;;;;;4.37;100.00;101309.44;5566123;25;20309;-78
2024/04/17 01:39:16;;;;;;;8.68;1.50;;;;;;;4.36;100.00;101305.09;5566140;25;19993;-78
2024/04/17 01:41:42;;;;;;;11.32;1.40;;;;;;;4.36;100.00;101300.69;5566441;25;20005;-77
2024/04/17 01:44:07;;;;;;;8.35;1.85;;;;;;;4.37;100.00;101302.41;5566222;25;20001;-79
2024/04/17 01:46:33;;;;;;;5.03;1.10;;;;;;;4.40;100.00;101301.38;5565851;25;19993;-79
2024/04/17 01:48:58;;;;;;;11.55;1.83;;;;;;;4.41;100.00;101301.28;5565988;25;19997;-79
2024/04/17 01:51:23;;;;;;;12.55;2.13;;;;;;;4.44;100.00;101299.41;5566328;25;19999;-78
2024/04/17 01:53:49;;;;;;;7.43;1.35;;;;;;;4.44;100.00;101297.63;5532499;25;20274;-77
2024/04/17 01:56:14;;;;;;;17.20;2.13;;;;;;;4.45;100.00;101295.81;5532727;25;19997;-77
2024/04/17 01:58:39;;;;;;;7.40;1.35;;;;;;;4.47;100.00;101288.69;5566099;25;20001;-77
2024/04/17 02:01:05;;;;;;;5.95;1.20;;;;;;;4.49;100.00;101300.00;5565807;25;20325;-77
2024/04/17 02:03:33;;;;;;;7.93;1.40;;;;;;;4.52;100.00;101299.81;5501913;25;20007;-78
2024/04/17 02:05:58;;;;;;;9.88;2.17;;;;;;;4.54;100.00;101295.31;5565501;25;20000;-78
2024/04/17 02:08:23;;;;;;;6.30;2.10;;;;;;;4.55;100.00;101297.00;5533004;25;19997;-77
2024/04/17 02:10:49;;;;;;;8.73;1.70;;;;;;;4.55;100.00;101302.28;5565708;25;19998;-77
2024/04/17 02:13:14;;;;;;;19.35;2.17;;;;;;;4.51;100.00;101301.63;5565608;25;20378;-77
2024/04/17 02:15:39;;;;;;;18.23;1.67;;;;;;;4.44;100.00;101296.78;5532892;25;20003;-78
2024/04/17 02:18:05;;;;;;;9.02;1.40;;;;;;;4.30;100.00;101301.06;5565585;25;20437;-77
2024/04/17 02:20:31;;;;;;;13.57;2.05;;;;;;;4.16;100.00;101293.91;5565080;25;20011;-78
2024/04/17 02:22:56;;;;;;;14.82;2.05;;;;;;;4.06;100.00;101295.38;5565120;25;19993;-77
2024/04/17 02:25:21;;;;;;;14.55;2.20;;;;;;;3.98;100.00;101301.06;5565610;25;20324;-78
2024/04/17 02:27:47;;;;;;;12.90;2.13;;;;;;;3.93;100.00;101302.28;5565369;25;19997;-78
2024/04/17 02:30:12;;;;;;;12.20;2.47;;;;;;;3.87;100.00;101293.75;5564523;25;19997;-78
2024/04/17 02:32:37;;;;;;;14.68;2.28;;;;;;;3.81;100.00;101307.28;5565638;25;20436;-79
2024/04/17 02:35:03;;;;;;;9.32;2.03;;;;;;;3.74;100.00;101302.44;5565932;25;20413;-80
2024/04/17 02:37:28;;;;;;;12.57;1.73;;;;;;;3.65;100.00;101303.78;5565480;25;19992;-78
2024/04/17 02:39:54;;;;;;;6.45;1.63;;;;;;;3.58;100.00;101302.41;5565216;25;20492;-79
2024/04/17 02:42:19;;;;;;;10.73;2.30;;;;;;;3.50;100.00;101301.03;5532373;25;20020;-79
2024/04/17 02:44:45;;;;;;;9.32;1.52;;;;;;;3.46;100.00;101304.78;5565436;25;19996;-77
2024/04/17 02:47:11;;;;;;;23.60;2.42;;;;;;;3.43;100.00;101299.66;5565375;25;20442;-79
2024/04/17 02:49:36;;;;;;;18.02;2.05;;;;;;;3.43;100.00;101296.16;5565075;25;20317;-80
2024/04/17 02:52:02;;;;;;;21.30;2.42;;;;;;;3.45;100.00;101299.56;5565349;25;19997;-79
2024/04/17 02:54:27;;;;;;;13.02;2.10;;;;;;;3.51;100.00;101297.47;5532521;25;20072;-79
2024/04/17 02:56:52;;;;;;;8.30;1.50;;;;;;;3.59;100.00;101294.41;5532308;25;19997;-80
2024/04/17 02:59:18;;;;;;;13.30;2.10;;;;;;;3.66;100.00;101300.22;5564948;25;20033;-80
2024/04/17 03:01:43;;;;;;;14.45;2.45;;;;;;;3.70;100.00;101296.47;5532023;25;19996;-80
2024/04/17 03:04:09;;;;;;;16.75;2.47;;;;;;;3.73;100.00;101300.72;5532453;25;20003;-80
2024/04/17 03:06:34;;;;;;;11.80;1.98;;;;;;;3.72;100.00;101297.25;5564765;25;20314;-80
2024/04/17 03:08:59;;;;;;;16.15;2.00;;;;;;;3.71;100.00;101293.75;5564655;25;19996;-80
2024/04/17 03:11:25;;;;;;;7.07;1.58;;;;;;;3.73;100.00;101303.34;5565580;25;20036;-80
2024/04/17 03:13:50;;;;;;;11.43;1.75;;;;;;;3.74;100.00;101302.44;5564565;25;20007;-80
2024/04/17 03:16:16;;;;;;;14.38;1.98;;;;;;;3.74;100.00;101308.53;5532118;25;20064;-80
2024/04/17 03:18:41;;;;;;;13.88;1.95;;;;;;;3.76;100.00;101303.19;5565090;25;20068;-80
2024/04/17 03:21:06;;;;;;;18.10;1.77;;;;;;;3.78;100.00;101303.97;5564698;25;20429;-79
2024/04/17 03:23:32;;;;;;;10.82;1.80;;;;;;;3.76;100.00;101306.66;5564485;25;20007;-79
2024/04/17 03:25:59;;;;;;;8.77;1.65;;;;;;;3.75;100.00;101304.09;5564834;25;19992;-80
2024/04/17 03:28:25;;;;;;;13.45;1.98;;;;;;;3.69;100.00;101310.56;5531824;25;20306;-80
2024/04/17 03:30:51;;;;;;;11.27;1.88;;;;;;;3.67;100.00;101313.28;5531432;25;20000;-79
2024/04/17 03:33:16;;;;;;;13.93;2.63;;;;;;;3.74;100.00;101312.97;5564676;25;20069;-78
2024/04/17 03:35:42;;;;;;;20.90;3.00;;;;;;;3.78;100.00;101315.34;5564380;25;20065;-78
2024/04/17 03:38:08;;;;;;;9.60;1.58;;;;;;;3.81;100.00;101323.06;5564380;25;19996;-80
2024/04/17 03:40:33;;;;;;;15.93;1.95;;;;;;;3.87;100.00;101316.63;5563051;25;19993;-79
2024/04/17 03:42:58;;;;;;;17.00;2.25;;;;;;;3.92;100.00;101322.47;5563838;25;19992;-78
2024/04/17 03:45:24;;;;;;;14.10;2.17;;;;;;;3.89;100.00;101318.22;5531717;25;19993;-79
2024/04/17 03:47:49;;;;;;;15.02;1.63;;;;;;;3.87;100.00;101330.63;5564107;25;20008;-79
2024/04/17 03:50:15;;;;;;;14.25;2.20;;;;;;;3.86;100.00;101317.53;5564221;25;20067;-79
2024/04/17 03:52:40;;;;;;;15.48;2.42;;;;;;;3.92;100.00;101327.72;5563908;25;20011;-78
2024/04/17 03:55:05;;;;;;;9.93;2.33;;;;;;;4.03;100.00;101322.75;5563925;25;19993;-80
2024/04/17 03:57:31;;;;;;;10.57;1.92;;;;;;;4.12;100.00;101318.75;5530848;25;20342;-79
2024/04/17 03:59:56;;;;;;;10.80;2.17;;;;;;;4.22;100.00;101330.47;5531023;25;19997;-80
2024/04/17 04:02:22;;;;;;;13.13;1.35;;;;;;;4.28;100.00;101323.16;5531473;25;19989;-79
2024/04/17 04:04:47;;;;;;;13.65;2.00;;;;;;;4.31;100.00;101325.59;5563739;25;20004;-81
2024/04/17 04:07:12;;;;;;;20.25;3.60;;;;;;;4.33;100.00;101324.59;5531077;25;19996;-78
2024/04/17 04:09:37;;;;;;;15.48;1.92;;;;;;;4.38;100.00;101321.69;5563969;25;20037;-81
2024/04/17 04:12:03;;;;;;;17.92;2.50;;;;;;;4.47;100.00;101325.59;5563484;25;20011;-80
2024/04/17 04:14:29;;;;;;;9.82;1.95;;;;;;;4.54;100.00;101319.88;5530861;25;20449;-80
2024/04/17 04:16:54;;;;;;;12.52;1.80;;;;;;;4.58;100.00;101323.19;5530417;25;20001;-79
2024/04/17 04:19:22;;;;;;;15.77;2.33;;;;;;;4.59;100.00;101325.72;5564215;25;20413;-80
2024/04/17 04:21:48;;;;;;;9.35;1.90;;;;;;;4.59;100.00;101325.72;5563805;25;19993;-82
2024/04/17 04:24:13;;;;;;;8.38;1.90;;;;;;;4.53;100.00;101315.53;5563163;25;20369;-81
2024/04/17 04:26:38;;;;;;;9.95;2.03;;;;;;;4.49;100.00;101321.91;5563605;25;20012;-80
2024/04/17 04:29:04;;;;;;;11.35;1.80;;;;;;;4.46;100.00;101318.63;5563431;25;20329;-80
2024/04/17 04:31:30;;;;;;;16.30;1.77;;;;;;;4.42;100.00;101315.31;5530662;25;19996;-79
2024/04/17 04:33:56;;;;;;;8.10;1.70;;;;;;;4.40;100.00;101332.97;5562984;25;20433;-80
2024/04/17 04:36:21;;;;;;;16.25;2.15;;;;;;;4.39;100.00;101316.34;5563848;25;20003;-81
2024/04/17 04:38:46;;;;;;;13.50;2.03;;;;;;;4.38;100.00;101324.31;5530573;25;20003;-80
2024/04/17 04:41:12;;;;;;;5.05;1.95;;;;;;;4.36;100.00;101326.19;5499665;25;19993;-79
2024/04/17 04:43:37;;;;;;;14.93;2.15;;;;;;;4.32;100.00;101322.88;5530418;25;20008;-80
2024/04/17 04:46:02;;;;;;;6.28;1.63;;;;;;;4.35;100.00;101327.13;5530252;25;19993;-79
2024/04/17 04:48:28;;;;;;;8.68;1.40;;;;;;;4.37;100.00;101320.84;5563045;25;19996;-79
2024/04/17 04:50:53;;;;;;;16.33;2.03;;;;;;;4.36;100.00;101321.78;5562776;25;20083;-84
2024/04/17 04:53:19;;;;;;;6.07;1.40;;;;;;;4.36;100.00;101324.41;5565803;25;20379;-80
2024/04/17 04:55:55;;;;;;;8.25;1.92;;;;;;;4.34;100.00;101323.63;5567155;25;20068;-79
2024/04/17 04:58:20;;;;;;;13.98;2.00;;;;;;;4.35;100.00;101327.13;5567345;25;20003;-78
2024/04/17 05:00:46;;;;;;;16.70;1.90;;;;;;;4.38;100.00;101327.81;5567250;25;19993;-80
2024/04/17 05:03:11;;;;;;;10.13;2.10;;;;;;;4.46;100.00;101323.88;5533187;25;19993;-80
2024/04/17 05:05:36;;;;;;;11.65;2.45;;;;;;;4.53;100.00;101318.16;5534395;25;20019;-82
2024/04/17 05:08:01;;;;;;;13.02;2.42;;;;;;;4.62;100.00;101322.06;5566945;25;20009;-80
2024/04/17 05:10:28;;;;;;;13.80;2.60;;;;;;;4.68;100.00;101318.22;5566479;25;20001;-80
2024/04/17 05:12:53;;;;;;;12.10;1.67;;;;;;;4.72;100.00;101323.25;5566321;25;19996;-81
2024/04/17 05:15:19;;;;;;;7.65;1.75;;;;;;;4.75;100.00;101320.41;5533682;25;20007;-80
2024/04/17 05:17:44;;;;;;;12.50;2.03;;;;;;;4.77;100.00;101312.41;5566965;25;20015;-79
2024/04/17 05:20:09;;;;;;;9.50;1.63;;;;;;;4.82;100.00;101328.84;5565853;25;20433;-80
2024/04/17 05:22:35;;;;;;;13.63;2.00;;;;;;;4.88;100.00;101324.97;5565977;25;20042;-78
2024/04/17 05:25:00;;;;;;;11.80;2.17;;;;;;;4.93;100.00;101326.41;5502666;25;20004;-81
2024/04/17 05:27:25;;;;;;;12.55;1.85;;;;;;;5.02;100.00;101324.16;5566211;25;20440;-79
2024/04/17 05:29:51;;;;;;;10.20;1.85;;;;;;;5.06;100.00;101326.53;5502187;25;20424;-81
2024/04/17 05:32:16;;;;;;;15.60;1.90;;;;;;;5.09;100.00;101326.34;5566726;25;20004;-79
2024/04/17 05:34:42;;;;;;;10.55;2.30;;;;;;;5.11;100.00;101326.25;5533727;25;20042;-79
2024/04/17 05:37:07;;;;;;;10.25;2.03;;;;;;;5.08;100.00;101322.00;5533161;25;20000;-80
2024/04/17 05:39:32;;;;;;;14.20;2.10;;;;;;;5.05;100.00;101311.63;5566889;25;19993;-78
2024/04/17 05:41:58;;;;;;;13.10;2.63;;;;;;;5.00;100.00;101312.84;5565971;25;20416;-79
2024/04/17 05:44:23;;;;;;;7.80;1.60;;;;;;;4.94;100.00;101309.66;5532622;25;20436;-79
2024/04/17 05:46:48;;;;;;;9.57;1.85;;;;;;;4.93;100.00;101317.66;5566967;25;20004;-79
2024/04/17 05:49:14;;;;;;;17.05;1.58;;;;;;;4.92;100.00;101311.50;5565784;25;20052;-79
2024/04/17 05:51:39;;;;;;;8.35;1.65;;;;;;;4.95;100.00;101311.31;5566238;25;20065;-78
2024/04/17 05:54:04;;;;;;;4.22;1.00;;;;;;;5.06;100.00;101309.84;5565985;25;20053;-80
2024/04/17 05:56:30;;;;;;;13.23;1.63;;;;;;;5.20;100.00;101317.78;5565923;25;20004;-78
2024/04/17 05:58:55;;;;;;;10.07;2.42;;;;;;;5.39;100.00;101320.16;5532791;25;19989;-78
2024/04/17 06:01:20;;;;;;;4.65;1.48;;;;;;;5.70;100.00;101317.41;5565746;25;20008;-78
2024/04/17 06:03:46;;;;;;;12.05;2.03;;;;;;;6.05;100.00;101317.84;5564577;25;20094;-79
2024/04/17 06:06:11;;;;;;;14.43;2.00;;;;;;;6.46;100.00;101318.75;5532786;25;20279;-82
2024/04/17 06:08:36;;;;;;;13.60;2.17;;;;;;;6.81;100.00;101315.59;5566305;25;20325;-78
2024/04/17 06:11:01;;;;;;;6.47;1.65;;;;;;;7.02;100.00;101319.41;5565772;25;20358;-82
2024/04/17 06:13:27;;;;;;;8.63;1.73;;;;;;;7.20;100.00;101319.97;5532441;25;20135;-80
2024/04/17 06:15:52;;;;;;;18.52;1.92;;;;;;;7.28;100.00;101311.47;5565215;25;19997;-82
2024/04/17 06:18:18;;;;;;;8.68;1.33;;;;;;;7.32;100.00;101315.63;5565514;25;20001;-77
2024/04/17 06:20:44;;;;;;;8.38;1.60;;;;;;;7.23;100.00;101314.44;5532678;25;20404;-77
2024/04/17 06:23:09;;;;;;;6.78;1.67;;;;;;;7.08;100.00;101307.56;5565485;25;20005;-78
2024/04/17 06:25:34;;;;;;;7.28;1.40;;;;;;;6.95;100.00;101314.66;5565371;25;19996;-79
2024/04/17 06:28:00;;;;;;;9.50;2.03;;;;;;;6.91;100.00;101315.81;5564871;25;20392;-79
2024/04/17 06:30:25;;;;;;;14.23;1.95;;;;;;;6.75;100.00;101310.69;5565276;25;19999;-82
2024/04/17 06:32:50;;;;;;;11.55;2.05;;;;;;;6.61;100.00;101324.84;5532685;25;20008;-80
2024/04/17 06:35:16;;;;;;;3.60;1.30;;;;;;;6.34;100.00;101326.56;5565329;25;20000;-84
2024/04/17 06:37:41;;;;;;;8.00;1.67;;;;;;;6.09;100.00;101324.66;5564617;25;20003;-80
2024/04/17 06:40:07;;;;;;;8.15;1.50;;;;;;;5.87;100.00;101327.78;5532118;25;20025;-82
2024/04/17 06:42:33;;;;;;;7.55;1.40;;;;;;;5.75;100.00;101331.19;5531665;25;19997;-80
2024/04/17 06:45:01;;;;;;;6.72;1.23;;;;;;;5.67;100.00;101329.00;5565091;25;20120;-82
2024/04/17 06:47:27;;;;;;;6.75;1.60;;;;;;;5.62;100.00;101334.56;5564727;25;20061;-80
2024/04/17 06:49:52;;;;;;;5.65;1.60;;;;;;;5.59;100.00;101320.72;5532015;25;20001;-81
2024/04/17 06:52:17;;;;;;;4.38;1.08;;;;;;;5.56;100.00;101337.59;5531714;25;19997;-83
2024/04/17 06:54:43;;;;;;;10.98;1.33;;;;;;;5.51;100.00;101336.16;5564612;25;20001;-84
2024/04/17 06:57:08;;;;;;;5.07;1.17;;;;;;;5.45;100.00;101338.25;5566674;25;20001;-84
2024/04/17 06:59:33;;;;;;;10.18;1.55;;;;;;;5.38;100.00;101349.28;5564946;25;20003;-80
2024/04/17 07:01:59;;;;;;;5.53;1.33;;;;;;;5.21;100.00;101340.59;5564479;25;19992;-83
2024/04/17 07:04:24;;;;;;;4.10;1.23;;;;;;;5.10;100.00;101335.09;5564723;25;20464;-85
2024/04/17 07:06:49;;;;;;;7.82;1.10;;;;;;;4.99;100.00;101335.75;5564646;25;20559;-80
2024/04/17 07:09:15;;;;;;;3.47;1.73;;;;;;;4.87;100.00;101328.56;5564266;25;20042;-82
2024/04/17 07:11:40;;;;;;;6.18;1.55;;;;;;;4.81;100.00;101326.25;5531514;25;20064;-81
2024/04/17 07:14:05;;;;;;;7.72;1.27;;;;;;;4.76;100.00;101329.16;5531433;25;20001;-81
2024/04/17 07:16:31;;;;;;;5.68;1.42;;;;;;;4.74;100.00;101339.81;5531490;25;20001;-79
2024/04/17 07:18:56;;;;;;;4.03;1.40;;;;;;;4.74;100.00;101336.31;5564649;25;20004;-84
2024/04/17 07:21:21;;;;;;;4.50;1.45;;;;;;;4.76;100.00;101327.41;5564182;25;20320;-81
2024/04/17 07:23:47;;;;;;;7.07;1.30;;;;;;;4.81;100.00;101320.97;5563864;25;20004;-85
2024/04/17 07:26:12;;;;;;;9.02;1.52;;;;;;;4.92;100.00;101323.84;5564076;25;20008;-83
2024/04/17 07:28:37;;;;;;;4.90;1.00;;;;;;;5.00;100.00;101326.91;5563622;25;20011;-83
2024/04/17 07:31:04;;;;;;;3.83;1.27;;;;;;;5.11;100.00;101321.81;5564467;25;19993;-81
2024/04/17 07:33:29;;;;;;;9.43;1.70;;;;;;;5.24;100.00;101321.06;5564189;25;19997;-83
2024/04/17 07:35:59;;;;;;;4.00;1.55;;;;;;;5.38;100.00;101310.53;5531224;25;20002;-81
2024/04/17 07:38:24;;;;;;;2.78;1.35;;;;;;;5.48;100.00;101316.09;5563749;25;20098;-84
2024/04/17 07:40:57;;;;;;;7.95;1.63;;;;;;;5.63;100.00;101312.50;5564399;25;20616;-85
2024/04/17 07:43:23;;;;;;;3.30;1.20;;;;;;;5.80;100.00;101310.59;5531681;25;19996;-84
2024/04/17 07:45:51;;;;;;;7.72;1.75;;;;;;;5.90;100.00;101309.09;5564549;25;19999;-82
2024/04/17 07:48:16;;;;;;;7.00;1.67;;;;;;;6.01;100.00;101300.50;5469940;25;20365;-81
2024/04/17 07:50:42;;;;;;;8.30;1.30;;;;;;;6.15;100.00;101311.03;5563689;25;20008;-82
2024/04/17 07:53:07;;;;;;;3.47;1.20;;;;;;;6.29;100.00;101312.78;5563695;25;19993;-81
2024/04/17 07:55:32;;;;;;;4.90;1.20;;;;;;;6.49;100.00;101302.69;5531393;25;19997;-81
2024/04/17 07:57:58;;;;;;;9.15;1.63;;;;;;;6.66;100.00;101301.59;5563525;25;20004;-80
2024/04/17 08:00:23;;;;;;;11.75;1.90;;;;;;;6.95;100.00;101301.44;5530786;25;20057;-81
2024/04/17 08:02:48;;;;;;;5.60;1.83;;;;;;;7.29;100.00;101299.94;5563130;25;20067;-83
2024/04/17 08:05:14;;;;;;;7.68;1.95;;;;;;;7.61;100.00;101303.94;5563919;25;19993;-82
2024/04/17 08:07:39;;;;;;;6.47;1.85;;;;;;;7.90;100.00;101304.53;5530708;25;20448;-78
2024/04/17 08:10:05;;;;;;;3.00;1.30;;;;;;;8.37;100.00;101302.00;5563673;25;20046;-82
2024/04/17 08:12:30;;;;;;;6.03;1.23;;;;;;;8.79;100.00;101297.13;5563861;25;20015;-85
2024/04/17 08:14:55;;;;;;;4.30;1.30;;;;;;;8.72;100.00;101301.19;5564293;25;20004;-83
2024/04/17 08:17:21;;;;;;;6.68;1.35;;;;;;;8.56;100.00;101298.88;5564242;25;20072;-83
2024/04/17 08:19:46;;;;;;;3.97;1.50;;;;;;;8.17;100.00;101298.19;5564354;25;20399;-79
2024/04/17 08:22:12;;;;;;;4.20;1.08;;;;;;;7.92;100.00;101292.00;5564647;25;20021;-81
2024/04/17 08:24:37;;;;;;;5.03;1.45;;;;;;;7.64;100.00;101307.22;5563488;25;20016;-81
2024/04/17 08:27:03;;;;;;;4.20;1.42;;;;;;;7.49;100.00;101295.91;5529791;25;20007;-86
2024/04/17 08:29:28;;;;;;;7.80;1.65;;;;;;;7.41;100.00;101300.91;5563050;25;20003;-84
2024/04/17 08:31:54;;;;;;;3.75;1.27;;;;;;;7.29;100.00;101292.00;5563668;25;20000;-85
2024/04/17 08:34:19;;;;;;;7.07;1.45;;;;;;;7.37;100.00;101300.25;5563509;25;20000;-82
2024/04/17 08:36:44;;;;;;;4.80;1.73;;;;;;;7.70;100.00;101296.22;5530016;25;19989;-84
2024/04/17 08:39:10;;;;;;;5.95;1.35;;;;;;;8.52;100.00;101287.63;5563328;25;20011;-83
2024/04/17 08:41:45;;;;;;;7.43;1.25;;;;;;;9.33;100.00;101293.00;5530614;25;20015;-82
2024/04/17 08:44:19;;;;;;;3.15;1.15;;;;;;;10.05;100.00;101281.94;5563775;25;20001;-83
2024/04/17 08:46:46;;;;;;;6.07;2.03;;;;;;;10.12;100.00;101284.97;5563835;25;19997;-84
2024/04/17 08:49:12;;;;;;;5.07;1.02;;;;;;;10.01;100.00;101277.84;5562835;25;19993;-85
2024/04/17 08:51:38;;;;;;;5.82;1.83;;;;;;;9.65;100.00;101271.88;5564274;25;19997;-81
2024/04/17 08:54:04;;;;;;;4.63;1.15;;;;;;;9.20;100.00;101277.19;5530003;25;20003;-81
2024/04/17 08:56:30;;;;;;;5.28;2.05;;;;;;;8.77;100.00;101269.88;5562222;25;20001;-83
2024/04/17 08:58:56;;;;;;;10.30;1.70;;;;;;;8.41;100.00;101299.00;5530123;25;20003;-83
2024/04/17 09:01:28;;;;;;;6.00;1.27;;;;;;;7.99;100.00;101313.63;5563558;25;20007;-84
2024/04/17 09:03:54;;;;;;;5.10;1.60;;;;;;;7.44;100.00;101316.56;5563270;25;19992;-84
2024/04/17 09:06:19;;;;;;;7.90;1.73;;;;;;;6.61;100.00;101317.75;5529971;25;20001;-83
2024/04/17 09:08:48;;;;;;;7.93;1.70;;;;;;;6.06;100.00;101309.00;5562707;25;19992;-83
2024/04/17 09:11:13;;;;;;;13.27;1.98;;;;;;;5.26;100.00;101313.94;5562603;25;20320;-86
2024/04/17 09:13:39;;;;;;;10.45;1.75;;;;;;;4.64;100.00;101307.00;5562714;25;19997;-87
2024/04/17 09:16:04;;;;;;;8.05;1.83;;;;;;;4.21;100.00;101299.78;5562715;25;20007;-83
2024/04/17 09:18:30;;;;;;;10.90;1.60;;;;;;;3.97;100.00;101299.38;5529381;25;20003;-79
2024/04/17 09:20:55;;;;;;;13.85;3.03;;;;;;;3.81;100.00;101302.00;5530266;25;19993;-78
2024/04/17 09:23:21;;;;;;;5.45;1.90;;;;;;;3.80;100.00;101291.56;5562955;25;20397;-82
2024/04/17 09:25:46;;;;;;;18.48;1.98;;;;;;;3.85;100.00;101292.13;5528856;25;20032;-78
2024/04/17 09:28:12;;;;;;;7.57;1.73;;;;;;;3.94;100.00;101289.03;5562751;25;20447;-80
2024/04/17 09:30:41;;;;;;;8.70;2.10;;;;;;;4.06;100.00;101290.09;5497796;25;19997;-83
2024/04/17 09:33:07;;;;;;;5.57;1.95;;;;;;;4.24;100.00;101296.13;5562124;25;19993;-78
2024/04/17 09:35:36;;;;;;;8.05;1.88;;;;;;;4.47;100.00;101292.19;5562262;25;20028;-82
2024/04/17 09:38:02;;;;;;;9.57;1.90;;;;;;;4.65;100.00;101286.78;5561933;25;20007;-77
2024/04/17 09:40:31;;;;;;;4.95;1.65;;;;;;;4.74;100.00;101286.22;5565812;25;19996;-80
2024/04/17 09:42:57;;;;;;;11.10;2.92;;;;;;;4.84;100.00;101282.13;5566486;25;20000;-79
2024/04/17 09:45:24;;;;;;;3.90;1.83;;;;;;;5.07;100.00;101282.53;5567369;25;20004;-78
2024/04/17 09:47:53;;;;;;;3.42;1.50;;;;;;;5.37;100.00;101281.59;5565769;25;20068;-79
2024/04/17 09:50:25;;;;;;;1.33;1.23;;;;;;;5.72;100.00;101274.13;5565744;25;19993;-81
2024/04/17 09:52:53;;;;;;;4.22;1.55;;;;;;;6.09;100.00;101268.31;5566483;25;20037;-80
2024/04/17 09:55:21;;;;;;;3.72;1.77;;;;;;;6.45;100.00;101272.13;5565500;25;20009;-80
2024/04/17 09:57:49;;;;;;;2.85;1.45;;;;;;;6.72;100.00;101269.44;5565543;25;19997;-79
2024/04/17 10:00:16;;;;;;;1.60;1.45;;;;;;;6.92;100.00;101269.88;5565449;25;20315;-80
2024/04/17 10:02:43;;;;;;;2.45;1.40;;;;;;;7.22;100.00;101282.78;5565247;25;19993;-80
2024/04/17 10:05:10;;;;;;;2.95;1.40;;;;;;;7.52;100.00;101290.38;5532795;25;20007;-82
2024/04/17 10:07:38;;;;;;;3.42;1.50;;;;;;;7.95;100.00;101297.91;5566036;25;20420;-79
2024/04/17 10:10:06;;;;;;;3.65;1.73;;;;;;;8.42;100.00;101303.38;5565244;25;19992;-78
2024/04/17 10:12:32;;;;;;;2.15;1.00;;;;;;;8.80;100.00;101309.44;5565071;25;20008;-78
2024/04/17 10:15:01;;;;;;;4.18;1.15;;;;;;;9.08;100.00;101321.47;5565075;25;19998;-78
2024/04/17 10:17:27;;;;;;;2.17;1.00;;;;;;;8.81;100.00;101311.16;5564998;25;20005;-82
2024/04/17 10:19:52;;;;;;;3.13;1.23;;;;;;;8.67;100.00;101321.94;5565656;25;20004;-77
2024/04/17 10:22:17;;;;;;;2.72;0.80;;;;;;;8.52;100.00;101313.31;5565225;25;19992;-80
2024/04/17 10:24:43;;;;;;;3.50;0.90;;;;;;;8.36;100.00;101318.88;5565434;25;20003;-78
2024/04/17 10:27:15;;;;;;;3.38;0.90;;;;;;;8.04;100.00;101319.44;5565821;25;20030;-77
2024/04/17 10:29:42;;;;;;;4.97;1.05;;;;;;;7.76;100.00;101322.25;5532083;25;20052;-80
2024/04/17 10:32:12;;;;;;;4.32;1.00;;;;;;;7.26;100.00;101324.00;5564864;25;20000;-79
2024/04/17 10:34:45;;;;;;;6.18;1.08;;;;;;;7.09;100.00;101330.44;5564227;25;20000;-83
2024/04/17 10:37:11;;;;;;;1.92;1.00;;;;;;;6.91;100.00;101329.03;5564462;25;20004;-86
2024/04/17 10:39:40;;;;;;;6.03;1.08;;;;;;;6.59;100.00;101329.38;5564201;25;20432;-84
2024/04/17 10:42:12;;;;;;;1.98;1.30;;;;;;;6.45;100.00;101336.44;5564264;25;20001;-83
2024/04/17 10:44:45;;;;;;;3.67;0.98;;;;;;;6.51;100.00;101341.31;5564497;25;20007;-81
2024/04/17 10:47:20;;;;;;;3.30;1.02;;;;;;;6.80;100.00;101335.06;5564447;25;20067;-83
2024/04/17 10:50:02;;;;;;;5.93;1.88;;;;;;;7.75;100.00;101331.16;5532784;25;20021;-84
2024/04/17 10:52:29;;;;;;;11.45;1.10;;;;;;;8.99;100.00;101344.25;5565054;25;19997;-86
2024/04/17 10:54:56;;;;;;;2.22;1.10;;;;;;;9.37;100.00;101339.59;5531886;25;20334;-83
2024/04/17 10:57:21;;;;;;;3.67;0.93;;;;;;;9.03;100.00;101347.50;5564402;25;20401;-84
2024/04/17 10:59:48;;;;;;;2.55;0.90;;;;;;;8.26;100.00;101351.38;5564575;25;20107;-85
2024/04/17 11:02:14;;;;;;;5.95;1.10;;;;;;;7.76;100.00;101348.75;5531736;25;20345;-81
2024/04/17 11:04:42;;;;;;;4.22;1.00;;;;;;;7.17;100.00;101348.44;5564291;25;20004;-83
2024/04/17 11:07:09;;;;;;;4.30;1.25;;;;;;;6.75;100.00;101351.22;5531881;25;20000;-86
2024/04/17 11:09:34;;;;;;;7.82;1.10;;;;;;;6.33;100.00;101353.09;5500644;25;19993;-80
2024/04/17 11:11:59;;;;;;;2.30;1.10;;;;;;;6.25;100.00;101344.78;5564575;25;20489;-83
2024/04/17 11:14:25;;;;;;;1.10;0.95;;;;;;;6.17;100.00;101342.66;5564569;25;19997;-83
2024/04/17 11:16:50;;;;;;;2.42;1.30;;;;;;;6.14;100.00;101334.91;5564316;25;20427;-83